sensor_id;sensor_type;location;lat;lon;timestamp;P1;durP1;ratioP1;P2;durP2;ratioP2
42332;SDS011;27984;51.476;5.702;2022-10-16T00:00:37;5.90;;;3.70;;
42332;SDS011;27984;51.476;5.702;2022-10-16T00:03:09;5.53;;;3.28;;
42332;SDS011;27984;51.476;5.702;2022-10-16T00:05:42;7.35;;;3.88;;
42332;SDS011;27984;51.476;5.702;2022-10-16T00:08:09;6.40;;;3.70;;
42332;SDS011;27984;51.476;5.702;2022-10-16T00:10:36;8.32;;;4.47;;
42332;SDS011;27984;51.476;5.702;2022-10-16T00:13:03;6.53;;;3.92;;
42332;SDS011;27984;51.476;5.702;2022-10-16T00:15:29;8.00;;;3.70;;
42332;SDS011;27984;51.476;5.702;2022-10-16T00:17:57;7.00;;;3.88;;
42332;SDS011;27984;51.476;5.702;2022-10-16T00:20:26;6.03;;;3.70;;
42332;SDS011;27984;51.476;5.702;2022-10-16T00:22:51;6.20;;;3.22;;
42332;SDS011;27984;51.476;5.702;2022-10-16T00:25:17;5.55;;;3.55;;
42332;SDS011;27984;51.476;5.702;2022-10-16T00:27:43;7.30;;;3.25;;
42332;SDS011;27984;51.476;5.702;2022-10-16T00:30:11;7.15;;;3.20;;
42332;SDS011;27984;51.476;5.702;2022-10-16T00:32:37;5.45;;;3.45;;
42332;SDS011;27984;51.476;5.702;2022-10-16T00:35:02;8.00;;;3.58;;
42332;SDS011;27984;51.476;5.702;2022-10-16T00:37:28;5.45;;;3.00;;
42332;SDS011;27984;51.476;5.702;2022-10-16T00:39:54;6.68;;;3.47;;
42332;SDS011;27984;51.476;5.702;2022-10-16T00:42:23;7.78;;;3.20;;
42332;SDS011;27984;51.476;5.702;2022-10-16T00:44:55;7.88;;;3.25;;
42332;SDS011;27984;51.476;5.702;2022-10-16T00:47:43;5.88;;;3.33;;
42332;SDS011;27984;51.476;5.702;2022-10-16T00:52:59;7.50;;;3.20;;
42332;SDS011;27984;51.476;5.702;2022-10-16T00:55:26;6.78;;;4.13;;
42332;SDS011;27984;51.476;5.702;2022-10-16T00:57:54;7.32;;;3.55;;
42332;SDS011;27984;51.476;5.702;2022-10-16T01:00:23;7.28;;;3.13;;
42332;SDS011;27984;51.476;5.702;2022-10-16T01:02:56;5.55;;;3.40;;
42332;SDS011;27984;51.476;5.702;2022-10-16T01:05:24;7.30;;;4.05;;
42332;SDS011;27984;51.476;5.702;2022-10-16T01:07:58;4.82;;;3.25;;
42332;SDS011;27984;51.476;5.702;2022-10-16T01:10:45;8.55;;;3.28;;
42332;SDS011;27984;51.476;5.702;2022-10-16T01:13:38;7.63;;;2.95;;
42332;SDS011;27984;51.476;5.702;2022-10-16T01:16:16;8.73;;;3.67;;
42332;SDS011;27984;51.476;5.702;2022-10-16T01:18:53;4.05;;;3.10;;
42332;SDS011;27984;51.476;5.702;2022-10-16T01:21:29;6.25;;;3.20;;
42332;SDS011;27984;51.476;5.702;2022-10-16T01:24:03;5.65;;;3.28;;
42332;SDS011;27984;51.476;5.702;2022-10-16T01:26:50;6.28;;;3.65;;
42332;SDS011;27984;51.476;5.702;2022-10-16T01:29:29;7.80;;;3.75;;
42332;SDS011;27984;51.476;5.702;2022-10-16T01:32:05;8.38;;;3.75;;
42332;SDS011;27984;51.476;5.702;2022-10-16T01:35:02;6.50;;;3.30;;
42332;SDS011;27984;51.476;5.702;2022-10-16T01:37:37;6.53;;;3.80;;
42332;SDS011;27984;51.476;5.702;2022-10-16T01:40:25;5.03;;;2.58;;
42332;SDS011;27984;51.476;5.702;2022-10-16T01:42:55;10.10;;;4.05;;
42332;SDS011;27984;51.476;5.702;2022-10-16T01:45:25;8.15;;;3.63;;
42332;SDS011;27984;51.476;5.702;2022-10-16T01:47:56;5.10;;;3.47;;
42332;SDS011;27984;51.476;5.702;2022-10-16T01:50:23;4.88;;;3.13;;
42332;SDS011;27984;51.476;5.702;2022-10-16T01:52:51;4.90;;;2.83;;
42332;SDS011;27984;51.476;5.702;2022-10-16T01:55:23;3.60;;;2.80;;
42332;SDS011;27984;51.476;5.702;2022-10-16T01:57:54;4.97;;;2.55;;
42332;SDS011;27984;51.476;5.702;2022-10-16T02:00:21;5.43;;;2.88;;
42332;SDS011;27984;51.476;5.702;2022-10-16T02:02:49;4.07;;;2.85;;
42332;SDS011;27984;51.476;5.702;2022-10-16T02:08:06;4.22;;;2.33;;
42332;SDS011;27984;51.476;5.702;2022-10-16T02:10:34;5.68;;;2.85;;
42332;SDS011;27984;51.476;5.702;2022-10-16T02:13:09;4.75;;;3.10;;
42332;SDS011;27984;51.476;5.702;2022-10-16T02:15:37;6.57;;;2.30;;
42332;SDS011;27984;51.476;5.702;2022-10-16T02:18:06;4.22;;;2.55;;
42332;SDS011;27984;51.476;5.702;2022-10-16T02:20:36;3.55;;;2.53;;
42332;SDS011;27984;51.476;5.702;2022-10-16T02:23:24;3.67;;;2.50;;
42332;SDS011;27984;51.476;5.702;2022-10-16T02:25:55;2.58;;;2.17;;
42332;SDS011;27984;51.476;5.702;2022-10-16T02:28:28;4.10;;;2.28;;
42332;SDS011;27984;51.476;5.702;2022-10-16T02:31:03;3.70;;;2.60;;
42332;SDS011;27984;51.476;5.702;2022-10-16T02:33:33;3.70;;;2.33;;
42332;SDS011;27984;51.476;5.702;2022-10-16T02:36:02;5.40;;;2.20;;
42332;SDS011;27984;51.476;5.702;2022-10-16T02:38:28;6.80;;;2.38;;
42332;SDS011;27984;51.476;5.702;2022-10-16T02:40:55;5.25;;;2.00;;
42332;SDS011;27984;51.476;5.702;2022-10-16T02:43:21;6.30;;;2.13;;
42332;SDS011;27984;51.476;5.702;2022-10-16T02:45:47;2.95;;;2.10;;
42332;SDS011;27984;51.476;5.702;2022-10-16T02:48:15;5.15;;;2.67;;
42332;SDS011;27984;51.476;5.702;2022-10-16T02:50:43;3.90;;;2.72;;
42332;SDS011;27984;51.476;5.702;2022-10-16T02:53:09;4.05;;;2.28;;
42332;SDS011;27984;51.476;5.702;2022-10-16T02:55:37;3.10;;;2.20;;
42332;SDS011;27984;51.476;5.702;2022-10-16T02:58:03;3.60;;;2.63;;
42332;SDS011;27984;51.476;5.702;2022-10-16T03:00:28;5.45;;;2.97;;
42332;SDS011;27984;51.476;5.702;2022-10-16T03:02:54;5.80;;;3.10;;
42332;SDS011;27984;51.476;5.702;2022-10-16T03:05:20;6.05;;;2.90;;
42332;SDS011;27984;51.476;5.702;2022-10-16T03:07:49;6.30;;;2.80;;
42332;SDS011;27984;51.476;5.702;2022-10-16T03:10:15;5.65;;;3.00;;
42332;SDS011;27984;51.476;5.702;2022-10-16T03:12:41;8.00;;;3.38;;
42332;SDS011;27984;51.476;5.702;2022-10-16T03:15:07;6.68;;;3.00;;
42332;SDS011;27984;51.476;5.702;2022-10-16T03:17:32;6.47;;;2.70;;
42332;SDS011;27984;51.476;5.702;2022-10-16T03:20:01;7.07;;;2.67;;
42332;SDS011;27984;51.476;5.702;2022-10-16T03:22:28;6.43;;;2.47;;
42332;SDS011;27984;51.476;5.702;2022-10-16T03:24:56;7.28;;;3.30;;
42332;SDS011;27984;51.476;5.702;2022-10-16T03:27:21;5.22;;;2.85;;
42332;SDS011;27984;51.476;5.702;2022-10-16T03:29:47;8.30;;;3.13;;
42332;SDS011;27984;51.476;5.702;2022-10-16T03:32:13;4.68;;;3.03;;
42332;SDS011;27984;51.476;5.702;2022-10-16T03:34:38;8.32;;;2.70;;
42332;SDS011;27984;51.476;5.702;2022-10-16T03:37:04;5.55;;;2.40;;
42332;SDS011;27984;51.476;5.702;2022-10-16T03:39:32;5.45;;;2.58;;
42332;SDS011;27984;51.476;5.702;2022-10-16T03:41:58;6.38;;;3.38;;
42332;SDS011;27984;51.476;5.702;2022-10-16T03:44:25;4.53;;;2.58;;
42332;SDS011;27984;51.476;5.702;2022-10-16T03:46:51;6.32;;;3.28;;
42332;SDS011;27984;51.476;5.702;2022-10-16T03:49:22;6.47;;;3.30;;
42332;SDS011;27984;51.476;5.702;2022-10-16T03:51:47;5.30;;;2.22;;
42332;SDS011;27984;51.476;5.702;2022-10-16T03:54:13;3.03;;;2.50;;
42332;SDS011;27984;51.476;5.702;2022-10-16T03:56:41;6.50;;;2.65;;
42332;SDS011;27984;51.476;5.702;2022-10-16T03:59:06;4.63;;;2.50;;
42332;SDS011;27984;51.476;5.702;2022-10-16T04:01:32;3.90;;;2.05;;
42332;SDS011;27984;51.476;5.702;2022-10-16T04:04:00;7.45;;;2.50;;
42332;SDS011;27984;51.476;5.702;2022-10-16T04:06:25;5.53;;;2.67;;
42332;SDS011;27984;51.476;5.702;2022-10-16T04:08:51;4.60;;;2.35;;
42332;SDS011;27984;51.476;5.702;2022-10-16T04:11:16;2.72;;;2.47;;
42332;SDS011;27984;51.476;5.702;2022-10-16T04:13:42;2.88;;;2.20;;
42332;SDS011;27984;51.476;5.702;2022-10-16T04:16:08;2.75;;;1.92;;
42332;SDS011;27984;51.476;5.702;2022-10-16T04:18:37;5.13;;;2.13;;
42332;SDS011;27984;51.476;5.702;2022-10-16T04:21:06;5.70;;;2.10;;
42332;SDS011;27984;51.476;5.702;2022-10-16T04:23:32;3.65;;;2.17;;
42332;SDS011;27984;51.476;5.702;2022-10-16T04:26:01;5.60;;;2.50;;
42332;SDS011;27984;51.476;5.702;2022-10-16T04:28:27;3.28;;;2.42;;
42332;SDS011;27984;51.476;5.702;2022-10-16T04:30:52;3.08;;;2.10;;
42332;SDS011;27984;51.476;5.702;2022-10-16T04:33:18;5.22;;;2.53;;
42332;SDS011;27984;51.476;5.702;2022-10-16T04:35:44;3.17;;;2.10;;
42332;SDS011;27984;51.476;5.702;2022-10-16T04:38:12;3.53;;;2.22;;
42332;SDS011;27984;51.476;5.702;2022-10-16T04:40:37;3.55;;;2.28;;
42332;SDS011;27984;51.476;5.702;2022-10-16T04:43:05;5.20;;;2.30;;
42332;SDS011;27984;51.476;5.702;2022-10-16T04:45:32;3.63;;;2.15;;
42332;SDS011;27984;51.476;5.702;2022-10-16T04:48:02;4.78;;;2.08;;
42332;SDS011;27984;51.476;5.702;2022-10-16T04:50:28;3.55;;;1.85;;
42332;SDS011;27984;51.476;5.702;2022-10-16T04:52:54;3.22;;;1.92;;
42332;SDS011;27984;51.476;5.702;2022-10-16T04:55:23;5.00;;;2.20;;
42332;SDS011;27984;51.476;5.702;2022-10-16T04:57:51;3.90;;;2.10;;
42332;SDS011;27984;51.476;5.702;2022-10-16T05:00:21;4.65;;;2.08;;
42332;SDS011;27984;51.476;5.702;2022-10-16T05:02:50;4.50;;;2.45;;
42332;SDS011;27984;51.476;5.702;2022-10-16T05:05:16;5.60;;;1.90;;
42332;SDS011;27984;51.476;5.702;2022-10-16T05:07:43;3.85;;;2.40;;
42332;SDS011;27984;51.476;5.702;2022-10-16T05:10:09;4.10;;;2.33;;
42332;SDS011;27984;51.476;5.702;2022-10-16T05:12:35;4.18;;;2.13;;
42332;SDS011;27984;51.476;5.702;2022-10-16T05:15:00;6.40;;;2.10;;
42332;SDS011;27984;51.476;5.702;2022-10-16T05:17:28;4.97;;;2.40;;
42332;SDS011;27984;51.476;5.702;2022-10-16T05:19:57;3.38;;;2.10;;
42332;SDS011;27984;51.476;5.702;2022-10-16T05:22:23;4.32;;;2.50;;
42332;SDS011;27984;51.476;5.702;2022-10-16T05:24:51;4.72;;;2.17;;
42332;SDS011;27984;51.476;5.702;2022-10-16T05:27:17;2.50;;;2.30;;
42332;SDS011;27984;51.476;5.702;2022-10-16T05:29:45;6.68;;;2.55;;
42332;SDS011;27984;51.476;5.702;2022-10-16T05:32:12;3.65;;;2.17;;
42332;SDS011;27984;51.476;5.702;2022-10-16T05:34:41;5.10;;;2.40;;
42332;SDS011;27984;51.476;5.702;2022-10-16T05:37:07;3.05;;;2.17;;
42332;SDS011;27984;51.476;5.702;2022-10-16T05:39:36;3.85;;;2.35;;
42332;SDS011;27984;51.476;5.702;2022-10-16T05:42:04;3.95;;;2.60;;
42332;SDS011;27984;51.476;5.702;2022-10-16T05:44:33;4.80;;;2.78;;
42332;SDS011;27984;51.476;5.702;2022-10-16T05:46:59;4.20;;;2.60;;
42332;SDS011;27984;51.476;5.702;2022-10-16T05:49:24;4.85;;;2.40;;
42332;SDS011;27984;51.476;5.702;2022-10-16T05:51:50;5.40;;;2.60;;
42332;SDS011;27984;51.476;5.702;2022-10-16T05:54:18;4.13;;;2.95;;
42332;SDS011;27984;51.476;5.702;2022-10-16T05:56:46;6.78;;;2.85;;
42332;SDS011;27984;51.476;5.702;2022-10-16T05:59:17;10.95;;;4.70;;
42332;SDS011;27984;51.476;5.702;2022-10-16T06:01:42;5.30;;;2.75;;
42332;SDS011;27984;51.476;5.702;2022-10-16T06:04:08;4.80;;;2.90;;
42332;SDS011;27984;51.476;5.702;2022-10-16T06:06:37;6.40;;;2.92;;
42332;SDS011;27984;51.476;5.702;2022-10-16T06:09:05;4.30;;;2.65;;
42332;SDS011;27984;51.476;5.702;2022-10-16T06:11:36;7.00;;;2.42;;
42332;SDS011;27984;51.476;5.702;2022-10-16T06:14:02;4.88;;;3.20;;
42332;SDS011;27984;51.476;5.702;2022-10-16T06:16:31;7.35;;;3.05;;
42332;SDS011;27984;51.476;5.702;2022-10-16T06:19:00;4.97;;;3.03;;
42332;SDS011;27984;51.476;5.702;2022-10-16T06:21:27;4.32;;;2.70;;
42332;SDS011;27984;51.476;5.702;2022-10-16T06:23:54;7.20;;;3.13;;
42332;SDS011;27984;51.476;5.702;2022-10-16T06:26:24;5.07;;;3.22;;
42332;SDS011;27984;51.476;5.702;2022-10-16T06:28:58;3.60;;;2.70;;
42332;SDS011;27984;51.476;5.702;2022-10-16T06:31:24;4.55;;;3.17;;
42332;SDS011;27984;51.476;5.702;2022-10-16T06:33:56;6.43;;;3.00;;
42332;SDS011;27984;51.476;5.702;2022-10-16T06:36:26;4.20;;;3.30;;
42332;SDS011;27984;51.476;5.702;2022-10-16T06:38:55;3.80;;;2.55;;
42332;SDS011;27984;51.476;5.702;2022-10-16T06:41:21;7.75;;;2.67;;
42332;SDS011;27984;51.476;5.702;2022-10-16T06:43:50;6.97;;;3.00;;
42332;SDS011;27984;51.476;5.702;2022-10-16T06:46:18;4.38;;;2.80;;
42332;SDS011;27984;51.476;5.702;2022-10-16T06:48:48;8.15;;;2.63;;
42332;SDS011;27984;51.476;5.702;2022-10-16T06:51:25;6.93;;;3.03;;
42332;SDS011;27984;51.476;5.702;2022-10-16T06:53:56;3.97;;;2.97;;
42332;SDS011;27984;51.476;5.702;2022-10-16T06:56:24;3.10;;;2.53;;
42332;SDS011;27984;51.476;5.702;2022-10-16T06:58:56;6.05;;;2.80;;
42332;SDS011;27984;51.476;5.702;2022-10-16T07:01:28;5.93;;;3.00;;
42332;SDS011;27984;51.476;5.702;2022-10-16T07:03:54;4.10;;;2.78;;
42332;SDS011;27984;51.476;5.702;2022-10-16T07:06:21;6.00;;;2.97;;
42332;SDS011;27984;51.476;5.702;2022-10-16T07:08:48;5.80;;;3.08;;
42332;SDS011;27984;51.476;5.702;2022-10-16T07:11:15;4.53;;;2.70;;
42332;SDS011;27984;51.476;5.702;2022-10-16T07:13:48;4.13;;;2.58;;
42332;SDS011;27984;51.476;5.702;2022-10-16T07:16:16;9.52;;;3.67;;
42332;SDS011;27984;51.476;5.702;2022-10-16T07:18:44;3.47;;;2.65;;
42332;SDS011;27984;51.476;5.702;2022-10-16T07:21:15;8.70;;;3.00;;
42332;SDS011;27984;51.476;5.702;2022-10-16T07:23:45;5.00;;;2.70;;
42332;SDS011;27984;51.476;5.702;2022-10-16T07:26:26;4.03;;;2.60;;
42332;SDS011;27984;51.476;5.702;2022-10-16T07:28:59;3.22;;;2.15;;
42332;SDS011;27984;51.476;5.702;2022-10-16T07:31:25;5.63;;;2.08;;
42332;SDS011;27984;51.476;5.702;2022-10-16T07:33:51;4.55;;;1.45;;
42332;SDS011;27984;51.476;5.702;2022-10-16T07:36:18;4.18;;;1.40;;
42332;SDS011;27984;51.476;5.702;2022-10-16T07:38:48;4.05;;;2.05;;
42332;SDS011;27984;51.476;5.702;2022-10-16T07:41:15;4.88;;;1.67;;
42332;SDS011;27984;51.476;5.702;2022-10-16T07:43:45;2.63;;;1.40;;
42332;SDS011;27984;51.476;5.702;2022-10-16T07:46:12;3.00;;;1.25;;
42332;SDS011;27984;51.476;5.702;2022-10-16T07:48:42;2.97;;;1.65;;
42332;SDS011;27984;51.476;5.702;2022-10-16T07:51:13;2.40;;;1.60;;
42332;SDS011;27984;51.476;5.702;2022-10-16T07:53:43;4.30;;;1.90;;
42332;SDS011;27984;51.476;5.702;2022-10-16T07:56:09;3.22;;;1.67;;
42332;SDS011;27984;51.476;5.702;2022-10-16T07:58:40;3.40;;;2.03;;
42332;SDS011;27984;51.476;5.702;2022-10-16T08:01:08;7.30;;;1.70;;
42332;SDS011;27984;51.476;5.702;2022-10-16T08:03:35;3.95;;;1.70;;
42332;SDS011;27984;51.476;5.702;2022-10-16T08:06:05;5.13;;;1.92;;
42332;SDS011;27984;51.476;5.702;2022-10-16T08:08:33;6.30;;;1.80;;
42332;SDS011;27984;51.476;5.702;2022-10-16T08:11:00;2.65;;;1.45;;
42332;SDS011;27984;51.476;5.702;2022-10-16T08:13:29;4.50;;;1.63;;
42332;SDS011;27984;51.476;5.702;2022-10-16T08:15:57;5.38;;;1.65;;
42332;SDS011;27984;51.476;5.702;2022-10-16T08:18:23;4.93;;;2.00;;
42332;SDS011;27984;51.476;5.702;2022-10-16T08:20:54;1.70;;;1.58;;
42332;SDS011;27984;51.476;5.702;2022-10-16T08:23:21;4.45;;;1.88;;
42332;SDS011;27984;51.476;5.702;2022-10-16T08:25:49;2.08;;;1.60;;
42332;SDS011;27984;51.476;5.702;2022-10-16T08:28:18;3.80;;;1.50;;
42332;SDS011;27984;51.476;5.702;2022-10-16T08:30:44;4.15;;;1.45;;
42332;SDS011;27984;51.476;5.702;2022-10-16T08:33:10;4.82;;;1.50;;
42332;SDS011;27984;51.476;5.702;2022-10-16T08:35:36;2.50;;;1.42;;
42332;SDS011;27984;51.476;5.702;2022-10-16T08:38:05;5.03;;;1.80;;
42332;SDS011;27984;51.476;5.702;2022-10-16T08:40:36;3.92;;;1.65;;
42332;SDS011;27984;51.476;5.702;2022-10-16T08:48:47;4.90;;;1.85;;
42332;SDS011;27984;51.476;5.702;2022-10-16T08:51:18;8.60;;;1.85;;
42332;SDS011;27984;51.476;5.702;2022-10-16T08:54:03;3.08;;;1.40;;
42332;SDS011;27984;51.476;5.702;2022-10-16T08:56:30;4.95;;;1.33;;
42332;SDS011;27984;51.476;5.702;2022-10-16T08:58:58;2.40;;;1.15;;
42332;SDS011;27984;51.476;5.702;2022-10-16T09:01:29;2.92;;;1.40;;
42332;SDS011;27984;51.476;5.702;2022-10-16T09:06:57;5.53;;;1.52;;
42332;SDS011;27984;51.476;5.702;2022-10-16T09:09:53;5.38;;;1.40;;
42332;SDS011;27984;51.476;5.702;2022-10-16T09:12:48;5.85;;;1.48;;
42332;SDS011;27984;51.476;5.702;2022-10-16T09:18:12;11.25;;;1.60;;
42332;SDS011;27984;51.476;5.702;2022-10-16T09:23:39;3.80;;;1.05;;
42332;SDS011;27984;51.476;5.702;2022-10-16T09:26:05;6.65;;;1.20;;
42332;SDS011;27984;51.476;5.702;2022-10-16T09:28:36;4.65;;;1.25;;
42332;SDS011;27984;51.476;5.702;2022-10-16T09:31:01;6.82;;;1.30;;
42332;SDS011;27984;51.476;5.702;2022-10-16T09:33:33;3.95;;;0.90;;
42332;SDS011;27984;51.476;5.702;2022-10-16T09:38:32;3.58;;;1.40;;
42332;SDS011;27984;51.476;5.702;2022-10-16T09:41:01;9.38;;;1.00;;
42332;SDS011;27984;51.476;5.702;2022-10-16T09:43:41;3.72;;;1.55;;
42332;SDS011;27984;51.476;5.702;2022-10-16T09:48:59;5.85;;;1.10;;
42332;SDS011;27984;51.476;5.702;2022-10-16T09:51:28;4.55;;;1.02;;
42332;SDS011;27984;51.476;5.702;2022-10-16T09:53:59;2.75;;;1.30;;
42332;SDS011;27984;51.476;5.702;2022-10-16T09:56:27;3.30;;;0.90;;
42332;SDS011;27984;51.476;5.702;2022-10-16T09:58:58;3.53;;;1.02;;
42332;SDS011;27984;51.476;5.702;2022-10-16T10:01:42;3.05;;;1.15;;
42332;SDS011;27984;51.476;5.702;2022-10-16T10:04:13;6.72;;;1.40;;
42332;SDS011;27984;51.476;5.702;2022-10-16T10:06:48;5.35;;;2.10;;
42332;SDS011;27984;51.476;5.702;2022-10-16T10:09:26;7.00;;;1.27;;
42332;SDS011;27984;51.476;5.702;2022-10-16T10:11:59;4.75;;;1.17;;
42332;SDS011;27984;51.476;5.702;2022-10-16T10:14:37;6.30;;;1.40;;
42332;SDS011;27984;51.476;5.702;2022-10-16T10:19:52;5.35;;;1.25;;
42332;SDS011;27984;51.476;5.702;2022-10-16T10:22:23;3.85;;;1.15;;
42332;SDS011;27984;51.476;5.702;2022-10-16T10:24:56;3.67;;;1.00;;
42332;SDS011;27984;51.476;5.702;2022-10-16T10:38:46;5.10;;;1.60;;
42332;SDS011;27984;51.476;5.702;2022-10-16T10:46:50;6.20;;;1.10;;
42332;SDS011;27984;51.476;5.702;2022-10-16T11:03:00;3.60;;;1.00;;
42332;SDS011;27984;51.476;5.702;2022-10-16T11:08:01;4.93;;;1.08;;
42332;SDS011;27984;51.476;5.702;2022-10-16T11:10:43;5.18;;;1.35;;
42332;SDS011;27984;51.476;5.702;2022-10-16T11:16:02;6.90;;;1.52;;
42332;SDS011;27984;51.476;5.702;2022-10-16T11:21:49;7.68;;;1.67;;
42332;SDS011;27984;51.476;5.702;2022-10-16T11:24:46;6.97;;;1.20;;
42332;SDS011;27984;51.476;5.702;2022-10-16T11:27:22;4.00;;;1.23;;
42332;SDS011;27984;51.476;5.702;2022-10-16T11:30:04;4.53;;;1.33;;
42332;SDS011;27984;51.476;5.702;2022-10-16T11:32:47;4.80;;;0.98;;
42332;SDS011;27984;51.476;5.702;2022-10-16T11:35:39;5.47;;;1.43;;
42332;SDS011;27984;51.476;5.702;2022-10-16T11:38:27;3.47;;;1.17;;
42332;SDS011;27984;51.476;5.702;2022-10-16T11:41:00;7.47;;;1.30;;
42332;SDS011;27984;51.476;5.702;2022-10-16T11:43:46;6.43;;;1.17;;
42332;SDS011;27984;51.476;5.702;2022-10-16T11:46:27;3.90;;;1.23;;
42332;SDS011;27984;51.476;5.702;2022-10-16T11:49:00;9.00;;;2.00;;
42332;SDS011;27984;51.476;5.702;2022-10-16T11:51:38;4.55;;;1.77;;
42332;SDS011;27984;51.476;5.702;2022-10-16T11:54:18;6.20;;;1.50;;
42332;SDS011;27984;51.476;5.702;2022-10-16T11:56:52;6.85;;;1.30;;
42332;SDS011;27984;51.476;5.702;2022-10-16T11:59:27;5.50;;;1.70;;
42332;SDS011;27984;51.476;5.702;2022-10-16T12:02:23;5.65;;;1.40;;
42332;SDS011;27984;51.476;5.702;2022-10-16T12:07:41;6.18;;;1.95;;
42332;SDS011;27984;51.476;5.702;2022-10-16T12:10:26;4.97;;;1.45;;
42332;SDS011;27984;51.476;5.702;2022-10-16T12:12:57;4.63;;;1.23;;
42332;SDS011;27984;51.476;5.702;2022-10-16T12:15:28;4.32;;;1.40;;
42332;SDS011;27984;51.476;5.702;2022-10-16T12:17:56;5.00;;;1.20;;
42332;SDS011;27984;51.476;5.702;2022-10-16T12:20:39;5.30;;;1.30;;
42332;SDS011;27984;51.476;5.702;2022-10-16T12:23:16;8.13;;;1.73;;
42332;SDS011;27984;51.476;5.702;2022-10-16T12:25:53;5.88;;;0.90;;
42332;SDS011;27984;51.476;5.702;2022-10-16T12:28:27;4.63;;;1.42;;
42332;SDS011;27984;51.476;5.702;2022-10-16T12:31:04;5.43;;;1.27;;
42332;SDS011;27984;51.476;5.702;2022-10-16T12:33:41;4.22;;;1.02;;
42332;SDS011;27984;51.476;5.702;2022-10-16T12:36:32;4.80;;;1.60;;
42332;SDS011;27984;51.476;5.702;2022-10-16T12:39:04;3.53;;;1.10;;
42332;SDS011;27984;51.476;5.702;2022-10-16T12:41:31;7.00;;;1.30;;
42332;SDS011;27984;51.476;5.702;2022-10-16T12:43:59;3.65;;;0.85;;
42332;SDS011;27984;51.476;5.702;2022-10-16T12:51:39;7.25;;;1.27;;
42332;SDS011;27984;51.476;5.702;2022-10-16T12:54:19;4.97;;;1.10;;
42332;SDS011;27984;51.476;5.702;2022-10-16T12:59:53;3.97;;;1.00;;
42332;SDS011;27984;51.476;5.702;2022-10-16T13:15:57;3.03;;;0.90;;
42332;SDS011;27984;51.476;5.702;2022-10-16T13:21:25;3.63;;;0.95;;
42332;SDS011;27984;51.476;5.702;2022-10-16T13:29:33;2.38;;;0.95;;
42332;SDS011;27984;51.476;5.702;2022-10-16T13:32:00;4.32;;;0.73;;
42332;SDS011;27984;51.476;5.702;2022-10-16T13:34:32;4.55;;;1.23;;
42332;SDS011;27984;51.476;5.702;2022-10-16T13:36:58;4.97;;;1.13;;
42332;SDS011;27984;51.476;5.702;2022-10-16T13:39:27;3.85;;;1.17;;
42332;SDS011;27984;51.476;5.702;2022-10-16T13:42:12;5.70;;;1.30;;
42332;SDS011;27984;51.476;5.702;2022-10-16T13:44:41;2.73;;;1.20;;
42332;SDS011;27984;51.476;5.702;2022-10-16T13:47:15;5.65;;;1.10;;
42332;SDS011;27984;51.476;5.702;2022-10-16T13:49:58;4.70;;;1.15;;
42332;SDS011;27984;51.476;5.702;2022-10-16T13:52:25;4.82;;;1.13;;
42332;SDS011;27984;51.476;5.702;2022-10-16T13:54:56;2.97;;;0.82;;
42332;SDS011;27984;51.476;5.702;2022-10-16T13:57:22;4.30;;;0.80;;
42332;SDS011;27984;51.476;5.702;2022-10-16T13:59:49;4.00;;;1.10;;
42332;SDS011;27984;51.476;5.702;2022-10-16T14:02:25;3.30;;;1.13;;
42332;SDS011;27984;51.476;5.702;2022-10-16T14:05:00;5.05;;;1.20;;
42332;SDS011;27984;51.476;5.702;2022-10-16T14:07:28;4.50;;;1.20;;
42332;SDS011;27984;51.476;5.702;2022-10-16T14:09:56;4.45;;;0.90;;
42332;SDS011;27984;51.476;5.702;2022-10-16T14:12:30;5.40;;;1.40;;
42332;SDS011;27984;51.476;5.702;2022-10-16T14:15:02;3.33;;;1.30;;
42332;SDS011;27984;51.476;5.702;2022-10-16T14:17:29;6.03;;;0.90;;
42332;SDS011;27984;51.476;5.702;2022-10-16T14:19:58;3.92;;;1.10;;
42332;SDS011;27984;51.476;5.702;2022-10-16T14:22:32;3.08;;;1.00;;
42332;SDS011;27984;51.476;5.702;2022-10-16T14:25:00;4.32;;;1.08;;
42332;SDS011;27984;51.476;5.702;2022-10-16T14:27:30;4.03;;;0.90;;
42332;SDS011;27984;51.476;5.702;2022-10-16T14:30:22;5.70;;;1.45;;
42332;SDS011;27984;51.476;5.702;2022-10-16T14:37:59;3.75;;;1.02;;
42332;SDS011;27984;51.476;5.702;2022-10-16T14:40:36;3.47;;;1.05;;
42332;SDS011;27984;51.476;5.702;2022-10-16T14:43:05;2.85;;;1.10;;
42332;SDS011;27984;51.476;5.702;2022-10-16T14:45:34;5.30;;;2.00;;
42332;SDS011;27984;51.476;5.702;2022-10-16T14:48:05;9.73;;;1.50;;
42332;SDS011;27984;51.476;5.702;2022-10-16T14:50:40;5.25;;;1.38;;
42332;SDS011;27984;51.476;5.702;2022-10-16T14:53:13;3.85;;;1.50;;
42332;SDS011;27984;51.476;5.702;2022-10-16T14:55:39;2.95;;;1.23;;
42332;SDS011;27984;51.476;5.702;2022-10-16T14:58:09;3.97;;;1.30;;
42332;SDS011;27984;51.476;5.702;2022-10-16T15:00:51;7.03;;;1.40;;
42332;SDS011;27984;51.476;5.702;2022-10-16T15:03:20;5.13;;;1.00;;
42332;SDS011;27984;51.476;5.702;2022-10-16T15:05:46;2.53;;;1.00;;
42332;SDS011;27984;51.476;5.702;2022-10-16T15:08:14;6.38;;;1.10;;
42332;SDS011;27984;51.476;5.702;2022-10-16T15:10:47;4.55;;;1.13;;
42332;SDS011;27984;51.476;5.702;2022-10-16T15:13:15;3.00;;;1.40;;
42332;SDS011;27984;51.476;5.702;2022-10-16T15:15:52;6.47;;;1.48;;
42332;SDS011;27984;51.476;5.702;2022-10-16T15:18:19;3.22;;;1.50;;
42332;SDS011;27984;51.476;5.702;2022-10-16T15:20:50;5.35;;;1.40;;
42332;SDS011;27984;51.476;5.702;2022-10-16T15:23:17;3.60;;;1.02;;
42332;SDS011;27984;51.476;5.702;2022-10-16T15:25:45;4.70;;;1.15;;
42332;SDS011;27984;51.476;5.702;2022-10-16T15:28:14;4.88;;;1.50;;
42332;SDS011;27984;51.476;5.702;2022-10-16T15:30:41;4.07;;;0.93;;
42332;SDS011;27984;51.476;5.702;2022-10-16T15:33:11;3.40;;;1.20;;
42332;SDS011;27984;51.476;5.702;2022-10-16T15:35:40;4.55;;;1.15;;
42332;SDS011;27984;51.476;5.702;2022-10-16T15:38:16;4.25;;;1.45;;
42332;SDS011;27984;51.476;5.702;2022-10-16T15:40:43;6.20;;;1.27;;
42332;SDS011;27984;51.476;5.702;2022-10-16T15:43:09;7.07;;;1.55;;
42332;SDS011;27984;51.476;5.702;2022-10-16T15:45:35;4.10;;;1.20;;
42332;SDS011;27984;51.476;5.702;2022-10-16T15:48:01;3.35;;;1.10;;
42332;SDS011;27984;51.476;5.702;2022-10-16T15:50:30;5.15;;;1.20;;
42332;SDS011;27984;51.476;5.702;2022-10-16T15:52:56;4.07;;;1.10;;
42332;SDS011;27984;51.476;5.702;2022-10-16T15:55:22;5.32;;;1.27;;
42332;SDS011;27984;51.476;5.702;2022-10-16T15:57:47;6.70;;;1.30;;
42332;SDS011;27984;51.476;5.702;2022-10-16T16:00:14;2.95;;;1.00;;
42332;SDS011;27984;51.476;5.702;2022-10-16T16:02:42;3.30;;;1.08;;
42332;SDS011;27984;51.476;5.702;2022-10-16T16:05:14;3.25;;;1.35;;
42332;SDS011;27984;51.476;5.702;2022-10-16T16:07:40;3.88;;;1.10;;
42332;SDS011;27984;51.476;5.702;2022-10-16T16:10:06;4.32;;;0.98;;
42332;SDS011;27984;51.476;5.702;2022-10-16T16:12:34;4.35;;;1.35;;
42332;SDS011;27984;51.476;5.702;2022-10-16T16:15:04;4.40;;;1.20;;
42332;SDS011;27984;51.476;5.702;2022-10-16T16:17:31;5.35;;;1.50;;
42332;SDS011;27984;51.476;5.702;2022-10-16T16:20:02;3.17;;;1.33;;
42332;SDS011;27984;51.476;5.702;2022-10-16T16:22:29;4.55;;;1.42;;
42332;SDS011;27984;51.476;5.702;2022-10-16T16:24:55;3.47;;;1.20;;
42332;SDS011;27984;51.476;5.702;2022-10-16T16:27:20;4.50;;;1.30;;
42332;SDS011;27984;51.476;5.702;2022-10-16T16:29:46;3.08;;;1.90;;
42332;SDS011;27984;51.476;5.702;2022-10-16T16:32:12;5.40;;;1.90;;
42332;SDS011;27984;51.476;5.702;2022-10-16T16:34:38;6.85;;;2.10;;
42332;SDS011;27984;51.476;5.702;2022-10-16T16:37:04;10.02;;;5.53;;
42332;SDS011;27984;51.476;5.702;2022-10-16T16:39:29;5.97;;;1.70;;
42332;SDS011;27984;51.476;5.702;2022-10-16T16:41:56;6.90;;;2.30;;
42332;SDS011;27984;51.476;5.702;2022-10-16T16:44:23;3.63;;;2.20;;
42332;SDS011;27984;51.476;5.702;2022-10-16T16:46:49;6.70;;;3.85;;
42332;SDS011;27984;51.476;5.702;2022-10-16T16:49:17;9.90;;;3.70;;
42332;SDS011;27984;51.476;5.702;2022-10-16T16:51:43;7.63;;;3.35;;